Time;durP1;ratioP1;P1;durP2;ratioP2;P2;SDS_P1;SDS_P2;PMS_P1;PMS_P2;Temp;Humidity;BMP_temperature;BMP_pressure;BME280_temperature;BME280_humidity;BME280_pressure;Samples;Min_cycle;Max_cycle;Signal;HPM_P1;HPM_P2
2023/05/18 00:01:13;;;;;;;163.77;61.63;;;;;;;17.44;50.82;102628.28;5019918;28;20025;-70
2023/05/18 00:03:38;;;;;;;167.48;63.80;;;;;;;17.43;50.65;102631.81;5031281;28;20017;-69
2023/05/18 00:06:07;;;;;;;163.32;62.05;;;;;;;17.43;50.42;102625.66;5047972;28;20105;-70
2023/05/18 00:08:33;;;;;;;163.48;62.00;;;;;;;17.43;50.48;102636.25;5036635;28;20031;-70
2023/05/18 00:11:00;;;;;;;165.10;61.30;;;;;;;17.42;50.90;102629.19;5033368;28;20021;-70
2023/05/18 00:13:25;;;;;;;159.60;60.83;;;;;;;17.39;50.63;102628.34;5031278;28;20056;-70
2023/05/18 00:15:54;;;;;;;163.88;63.10;;;;;;;17.38;50.90;102639.81;5017481;28;20060;-70
2023/05/18 00:18:22;;;;;;;168.52;63.75;;;;;;;17.39;50.90;102633.63;5047895;28;20100;-71
2023/05/18 00:20:49;;;;;;;166.77;61.28;;;;;;;17.38;50.83;102628.34;5053631;28;20033;-70
2023/05/18 00:23:15;;;;;;;167.35;61.95;;;;;;;17.37;50.82;102635.41;5032344;28;20017;-71
2023/05/18 00:25:41;;;;;;;165.98;62.72;;;;;;;17.36;51.08;102632.81;5030496;28;20031;-70
2023/05/18 00:28:06;;;;;;;164.23;61.60;;;;;;;17.35;50.82;102633.69;5035312;28;20037;-70
2023/05/18 00:30:31;;;;;;;163.98;63.13;;;;;;;17.34;50.28;102631.94;5035987;28;20033;-70
2023/05/18 00:33:02;;;;;;;165.55;61.20;;;;;;;17.34;50.42;102629.28;5035473;28;20025;-70
2023/05/18 00:35:28;;;;;;;167.25;63.53;;;;;;;17.33;50.90;102640.75;5007418;28;20033;-70
2023/05/18 00:37:53;;;;;;;167.30;61.70;;;;;;;17.33;50.74;102646.03;5034634;28;20551;-70
2023/05/18 00:40:19;;;;;;;173.45;62.55;;;;;;;17.32;51.00;102639.88;5054127;28;20021;-71
2023/05/18 00:42:45;;;;;;;163.27;61.50;;;;;;;17.31;50.92;102638.13;5012950;28;20083;-70
2023/05/18 00:45:11;;;;;;;165.50;61.55;;;;;;;17.30;51.09;102636.41;5041315;28;20024;-70
2023/05/18 00:47:37;;;;;;;168.02;64.05;;;;;;;17.30;50.97;102646.97;5040245;28;20039;-71
2023/05/18 00:50:03;;;;;;;164.75;61.88;;;;;;;17.29;50.65;102645.22;5018913;28;20028;-71
2023/05/18 00:52:28;;;;;;;173.80;63.85;;;;;;;17.30;50.76;102640.81;5023414;28;20020;-71
2023/05/18 00:54:53;;;;;;;168.15;61.88;;;;;;;17.29;50.95;102649.59;5051342;28;20055;-71
2023/05/18 00:57:19;;;;;;;163.63;61.88;;;;;;;17.29;50.59;102644.31;5050614;28;20021;-71
2023/05/18 00:59:46;;;;;;;169.63;62.55;;;;;;;17.27;51.18;102652.28;5025596;28;20405;-71
2023/05/18 01:02:13;;;;;;;164.63;62.08;;;;;;;17.27;50.46;102652.28;5035172;28;20028;-71
2023/05/18 01:04:40;;;;;;;176.32;63.15;;;;;;;17.26;50.55;102653.19;5039854;22;20428;-70
2023/05/18 01:07:06;;;;;;;164.10;61.22;;;;;;;17.27;51.00;102651.41;4992121;28;20046;-70
2023/05/18 01:09:32;;;;;;;167.60;62.53;;;;;;;17.26;50.41;102655.84;5002670;28;20076;-70
2023/05/18 01:12:11;;;;;;;163.52;62.03;;;;;;;17.26;51.28;102653.19;5011457;28;20026;-70
2023/05/18 01:14:41;;;;;;;163.82;62.58;;;;;;;17.25;51.22;102654.06;4994833;28;20028;-70
2023/05/18 01:17:19;;;;;;;164.48;61.28;;;;;;;17.24;51.44;102642.63;5009697;28;20029;-70
2023/05/18 01:19:50;;;;;;;174.55;63.83;;;;;;;17.24;51.21;102653.19;5014239;28;20057;-70
2023/05/18 01:22:49;;;;;;;169.43;61.75;;;;;;;17.24;51.52;102654.97;5012025;28;20060;-70
2023/05/18 01:25:32;;;;;;;170.77;62.63;;;;;;;17.22;50.85;102648.84;5009493;28;20022;-70
2023/05/18 01:28:05;;;;;;;173.43;64.28;;;;;;;17.21;51.14;102652.38;5017539;28;20361;-70
2023/05/18 01:30:32;;;;;;;164.05;62.80;;;;;;;17.22;50.96;102656.78;5019438;28;20028;-70
2023/05/18 01:32:57;;;;;;;164.18;62.03;;;;;;;17.20;51.12;102651.47;5012744;28;20499;-70
2023/05/18 01:35:23;;;;;;;161.70;61.92;;;;;;;17.21;51.45;102657.66;5010068;28;20029;-70
2023/05/18 01:37:48;;;;;;;167.35;62.33;;;;;;;17.19;50.92;102664.72;5018711;28;20021;-70
2023/05/18 01:40:13;;;;;;;171.57;63.05;;;;;;;17.19;50.99;102654.16;5013217;28;20534;-70
2023/05/18 01:42:44;;;;;;;163.38;61.65;;;;;;;17.20;50.79;102656.75;4990975;28;20026;-70
2023/05/18 01:45:15;;;;;;;162.65;61.30;;;;;;;17.20;51.46;102661.19;4995502;28;20109;-70
2023/05/18 01:47:44;;;;;;;167.35;63.20;;;;;;;17.18;51.49;102658.56;5012332;28;20129;-70
2023/05/18 01:50:14;;;;;;;168.32;63.13;;;;;;;17.19;50.71;102664.72;5033427;28;20049;-71
2023/05/18 01:52:47;;;;;;;166.85;62.63;;;;;;;17.19;50.81;102664.72;4994296;28;20100;-70
2023/05/18 01:55:14;;;;;;;168.23;62.60;;;;;;;17.18;51.33;102663.84;5012137;28;20025;-70
2023/05/18 01:57:41;;;;;;;166.63;62.33;;;;;;;17.18;50.80;102662.97;5012977;28;20018;-70
2023/05/18 02:00:09;;;;;;;170.25;61.92;;;;;;;17.18;50.75;102662.97;4994027;28;20022;-70
2023/05/18 02:02:34;;;;;;;164.90;61.22;;;;;;;17.18;51.09;102662.97;5012154;28;20026;-69
2023/05/18 02:05:00;;;;;;;174.57;63.63;;;;;;;17.17;50.78;102672.66;5009512;28;20029;-68
2023/05/18 02:07:25;;;;;;;169.23;61.78;;;;;;;17.17;50.79;102663.88;5017418;28;20029;-69
2023/05/18 02:09:51;;;;;;;169.02;61.83;;;;;;;17.17;51.15;102662.09;5009986;28;20040;-69
2023/05/18 02:12:16;;;;;;;165.88;62.50;;;;;;;17.17;50.80;102666.50;5018764;28;20080;-69
2023/05/18 02:14:41;;;;;;;170.48;64.65;;;;;;;17.16;50.92;102656.84;5009622;28;20018;-69
2023/05/18 02:17:07;;;;;;;170.00;62.88;;;;;;;17.14;50.93;102654.22;5008719;28;20025;-69
2023/05/18 02:19:36;;;;;;;159.98;61.95;;;;;;;17.15;50.37;102652.44;5025032;28;20453;-69
2023/05/18 02:22:04;;;;;;;166.10;62.80;;;;;;;17.14;50.54;102653.31;5013005;28;20036;-69
2023/05/18 02:24:30;;;;;;;167.77;62.30;;;;;;;17.14;50.67;102650.69;4992411;28;20456;-69
2023/05/18 02:26:55;;;;;;;180.80;63.58;;;;;;;17.14;50.57;102655.97;4980104;28;20121;-69
2023/05/18 02:29:20;;;;;;;163.98;61.55;;;;;;;17.12;50.88;102655.13;5004320;28;20072;-70
2023/05/18 02:31:46;;;;;;;159.45;61.05;;;;;;;17.11;50.77;102656.91;5028850;28;20041;-69
2023/05/18 02:34:11;;;;;;;185.45;66.10;;;;;;;17.11;50.17;102658.66;5011958;28;20057;-69
2023/05/18 02:36:38;;;;;;;167.60;61.17;;;;;;;17.12;50.64;102660.41;5009513;28;20026;-69
2023/05/18 02:39:05;;;;;;;178.85;63.50;;;;;;;17.10;51.16;102660.44;5023315;28;20506;-69
2023/05/18 02:41:33;;;;;;;162.88;60.63;;;;;;;17.10;50.96;102665.72;4997767;28;20443;-69
2023/05/18 02:44:00;;;;;;;166.73;62.53;;;;;;;17.10;50.91;102662.19;5003039;28;20446;-69
2023/05/18 02:46:26;;;;;;;167.98;61.65;;;;;;;17.10;51.20;102664.81;5000254;28;20025;-69
2023/05/18 02:48:51;;;;;;;165.63;61.10;;;;;;;17.08;51.18;102667.47;5001102;28;20038;-69
2023/05/18 02:51:17;;;;;;;177.07;63.50;;;;;;;17.08;51.08;102666.63;4997992;28;20050;-69
2023/05/18 02:53:44;;;;;;;169.98;62.67;;;;;;;17.07;51.13;102668.41;4999407;28;20116;-69
2023/05/18 02:56:11;;;;;;;178.77;62.72;;;;;;;17.06;51.04;102675.41;5024145;28;20026;-68
2023/05/18 02:58:37;;;;;;;163.10;61.70;;;;;;;17.06;51.32;102672.78;5019427;28;20095;-69
2023/05/18 03:01:06;;;;;;;162.75;60.17;;;;;;;17.05;50.94;102664.88;5011399;28;20443;-69
2023/05/18 03:03:34;;;;;;;177.57;62.85;;;;;;;17.05;51.36;102668.38;4990544;28;20030;-69
2023/05/18 03:06:01;;;;;;;177.63;64.13;;;;;;;17.05;51.03;102663.09;5009657;28;20028;-69
2023/05/18 03:08:27;;;;;;;164.52;62.08;;;;;;;17.04;50.81;102666.66;5005423;28;20095;-69
2023/05/18 03:10:53;;;;;;;164.88;61.40;;;;;;;17.02;51.20;102663.16;5001218;28;20083;-69
2023/05/18 03:13:18;;;;;;;168.80;63.20;;;;;;;17.05;51.18;102667.53;5009315;28;20077;-69
2023/05/18 03:15:48;;;;;;;178.55;62.55;;;;;;;17.03;51.21;102664.91;5007510;28;20029;-69
2023/05/18 03:18:13;;;;;;;161.65;61.05;;;;;;;17.04;51.44;102660.47;5007134;28;20022;-69
2023/05/18 03:20:39;;;;;;;166.30;61.47;;;;;;;17.03;51.03;102670.19;5025694;28;20368;-69
2023/05/18 03:23:04;;;;;;;173.20;63.05;;;;;;;17.02;50.95;102665.78;5009051;28;20491;-69
2023/05/18 03:25:31;;;;;;;164.10;62.17;;;;;;;17.03;50.67;102675.47;5009716;28;20116;-68
2023/05/18 03:27:57;;;;;;;178.38;64.55;;;;;;;17.03;50.72;102672.81;4996289;28;20152;-69
2023/05/18 03:30:22;;;;;;;158.32;61.63;;;;;;;17.03;50.92;102674.59;5015502;28;20046;-69
2023/05/18 03:32:48;;;;;;;163.10;63.08;;;;;;;17.04;51.33;102676.31;5021671;28;20371;-69
2023/05/18 03:35:14;;;;;;;165.35;61.83;;;;;;;17.03;51.06;102675.47;5016897;28;20557;-69
2023/05/18 03:37:39;;;;;;;162.45;61.70;;;;;;;17.03;51.06;102686.03;5004441;28;20043;-69
2023/05/18 03:40:10;;;;;;;170.45;62.72;;;;;;;17.02;50.89;102681.63;5027481;28;20026;-70
2023/05/18 03:42:36;;;;;;;168.55;61.95;;;;;;;17.03;50.90;102677.25;4997691;28;20113;-69
2023/05/18 03:45:02;;;;;;;167.30;61.88;;;;;;;17.04;51.00;102677.22;5000724;28;20068;-69
2023/05/18 03:47:28;;;;;;;163.68;60.85;;;;;;;17.04;50.57;102681.59;5016827;28;20105;-69
2023/05/18 03:49:54;;;;;;;161.77;60.97;;;;;;;17.04;50.96;102692.16;5024513;28;20026;-69
2023/05/18 03:52:21;;;;;;;164.25;61.13;;;;;;;17.04;50.52;102692.16;5014992;28;20068;-69
2023/05/18 03:54:48;;;;;;;172.35;63.63;;;;;;;17.04;50.41;102689.53;5019631;28;20075;-70
2023/05/18 03:57:14;;;;;;;165.60;61.60;;;;;;;17.05;50.02;102684.22;5024929;28;20021;-69
2023/05/18 03:59:39;;;;;;;170.63;61.88;;;;;;;17.05;50.50;102688.66;5022405;28;20021;-69
2023/05/18 04:02:05;;;;;;;159.13;60.33;;;;;;;17.06;50.21;102683.34;5018035;28;20390;-69
2023/05/18 04:04:30;;;;;;;164.07;63.13;;;;;;;17.06;50.15;102685.13;5033843;28;20230;-70
2023/05/18 04:06:56;;;;;;;172.23;63.65;;;;;;;17.04;50.48;102682.50;5009273;28;20649;-69
2023/05/18 04:09:22;;;;;;;167.05;62.42;;;;;;;17.06;50.58;102687.75;5028060;28;20108;-69
2023/05/18 04:11:48;;;;;;;162.98;61.45;;;;;;;17.06;50.16;102691.25;5014746;28;20037;-69
2023/05/18 04:14:13;;;;;;;176.82;63.00;;;;;;;17.06;50.45;102690.41;5016695;28;20163;-69
2023/05/18 04:16:40;;;;;;;165.00;62.25;;;;;;;17.06;50.31;102693.91;5019168;28;20470;-69
2023/05/18 04:19:06;;;;;;;165.82;60.67;;;;;;;17.08;50.19;102699.16;5014811;28;20017;-69
2023/05/18 04:21:34;;;;;;;160.75;60.25;;;;;;;17.08;50.32;102700.94;5020908;28;20032;-68
2023/05/18 04:24:04;;;;;;;158.25;61.03;;;;;;;17.10;50.04;102707.94;5012209;28;20030;-68
2023/05/18 04:26:30;;;;;;;167.30;61.05;;;;;;;17.10;50.65;102707.06;4996410;28;20025;-69
2023/05/18 04:28:58;;;;;;;166.00;62.53;;;;;;;17.10;50.18;102709.69;5023883;28;20399;-69
2023/05/18 04:31:26;;;;;;;175.68;62.90;;;;;;;17.10;50.23;102714.97;5003754;28;20065;-69
2023/05/18 04:33:52;;;;;;;169.18;61.80;;;;;;;17.10;50.57;102722.91;5006257;28;20030;-69
2023/05/18 04:36:19;;;;;;;168.68;62.45;;;;;;;17.11;50.10;102719.38;5021670;28;20474;-69
2023/05/18 04:38:44;;;;;;;157.90;60.95;;;;;;;17.11;49.99;102724.66;5018659;28;20013;-69
2023/05/18 04:41:10;;;;;;;162.13;60.83;;;;;;;17.12;49.77;102726.41;5028927;28;20489;-70
2023/05/18 04:43:36;;;;;;;174.20;62.22;;;;;;;17.13;49.69;102726.38;5011248;28;20026;-70
2023/05/18 04:46:01;;;;;;;163.15;60.90;;;;;;;17.14;50.03;102727.25;5008968;28;20034;-69
2023/05/18 04:48:28;;;;;;;161.82;61.10;;;;;;;17.15;49.71;102731.66;5014481;28;20030;-69
2023/05/18 04:50:54;;;;;;;163.80;62.53;;;;;;;17.15;50.34;102726.38;5012301;28;20049;-70
2023/05/18 04:53:20;;;;;;;165.02;61.22;;;;;;;17.16;49.58;102729.00;4995023;28;20026;-68
2023/05/18 04:55:49;;;;;;;181.10;64.68;;;;;;;17.18;50.13;102726.34;4995571;28;20368;-70
2023/05/18 04:58:14;;;;;;;162.05;62.30;;;;;;;17.16;49.70;102731.63;5024830;28;20029;-69
2023/05/18 05:00:39;;;;;;;163.68;61.58;;;;;;;17.19;49.60;102738.66;5011448;28;20028;-70
2023/05/18 05:03:05;;;;;;;162.80;62.45;;;;;;;17.19;49.27;102742.19;5015727;28;20033;-70
2023/05/18 05:05:30;;;;;;;162.15;61.45;;;;;;;17.20;49.28;102735.97;5025031;28;20033;-70
2023/05/18 05:07:56;;;;;;;166.52;62.83;;;;;;;17.21;49.46;102744.78;5022281;28;20065;-70
2023/05/18 05:10:22;;;;;;;169.38;61.97;;;;;;;17.23;49.96;102756.19;5001965;28;20037;-69
2023/05/18 05:12:50;;;;;;;166.93;61.53;;;;;;;17.24;49.63;102742.09;5005821;28;20022;-69
2023/05/18 05:15:16;;;;;;;162.27;60.85;;;;;;;17.24;48.81;102742.97;5011903;28;20034;-70
2023/05/18 05:17:42;;;;;;;183.55;63.85;;;;;;;17.24;49.49;102742.09;4999587;28;20067;-69
2023/05/18 05:20:08;;;;;;;168.93;63.03;;;;;;;17.25;48.82;102749.16;4998500;28;20057;-69
2023/05/18 05:22:33;;;;;;;165.13;62.03;;;;;;;17.26;49.71;102745.63;4979285;28;20108;-69
2023/05/18 05:24:58;;;;;;;163.02;62.72;;;;;;;17.26;49.34;102745.63;5005121;28;20085;-70
2023/05/18 05:27:25;;;;;;;153.90;60.35;;;;;;;17.26;48.81;102748.25;5012113;28;20304;-70
2023/05/18 05:29:50;;;;;;;166.55;63.35;;;;;;;17.27;48.87;102757.91;5030815;28;20032;-69
2023/05/18 05:32:16;;;;;;;167.48;61.65;;;;;;;17.28;48.91;102754.38;5020886;28;20021;-69
2023/05/18 05:34:46;;;;;;;159.30;60.97;;;;;;;17.29;50.08;102757.88;5023986;28;20021;-69
2023/05/18 05:37:12;;;;;;;160.70;60.75;;;;;;;17.30;49.02;102763.19;4991422;28;20017;-69
2023/05/18 05:39:37;;;;;;;155.85;59.28;;;;;;;17.32;49.00;102761.38;5003108;28;20434;-69
2023/05/18 05:42:03;;;;;;;163.07;61.17;;;;;;;17.34;48.60;102762.25;5015010;28;20021;-70
2023/05/18 05:44:28;;;;;;;164.48;60.72;;;;;;;17.37;48.68;102769.28;5015164;28;20044;-70
2023/05/18 05:46:54;;;;;;;166.70;61.05;;;;;;;17.37;49.15;102766.63;5011530;28;20442;-69
2023/05/18 05:49:19;;;;;;;162.55;59.58;;;;;;;17.38;48.86;102771.88;5015750;28;20062;-69
2023/05/18 05:51:44;;;;;;;160.73;60.95;;;;;;;17.38;48.86;102777.19;5014777;28;20056;-69
2023/05/18 05:54:10;;;;;;;179.38;63.80;;;;;;;17.38;48.75;102774.53;5019879;28;20065;-69
2023/05/18 05:56:35;;;;;;;168.73;61.95;;;;;;;17.40;48.69;102775.38;5003099;28;20024;-70
2023/05/18 05:59:00;;;;;;;154.80;59.53;;;;;;;17.42;48.86;102771.84;5012006;28;20026;-69
2023/05/18 06:01:26;;;;;;;165.73;63.28;;;;;;;17.43;48.91;102776.25;5015760;28;20021;-70
2023/05/18 06:03:51;;;;;;;167.32;59.97;;;;;;;17.44;49.19;102780.63;5016236;28;20419;-70
2023/05/18 06:06:17;;;;;;;159.68;59.75;;;;;;;17.44;49.28;102776.22;5010918;28;20034;-70
2023/05/18 06:08:42;;;;;;;161.30;60.53;;;;;;;17.46;49.16;102778.84;5010045;28;20032;-69
2023/05/18 06:11:07;;;;;;;158.75;60.45;;;;;;;17.47;48.43;102780.59;4997651;28;20375;-69
2023/05/18 06:13:33;;;;;;;167.43;60.05;;;;;;;17.49;48.89;102781.44;5012936;28;20941;-69
2023/05/18 06:15:58;;;;;;;165.73;60.42;;;;;;;17.51;48.85;102787.59;5004422;28;20036;-69
2023/05/18 06:18:23;;;;;;;168.15;61.83;;;;;;;17.52;48.38;102792.84;5008264;28;20113;-69
2023/05/18 06:20:49;;;;;;;162.90;60.15;;;;;;;17.54;48.51;102798.97;5018353;28;20402;-70
2023/05/18 06:23:20;;;;;;;169.07;61.75;;;;;;;17.57;47.83;102792.78;5014849;28;20028;-69
2023/05/18 06:25:46;;;;;;;162.77;60.25;;;;;;;17.57;48.04;102787.50;5011060;28;20045;-69
2023/05/18 06:28:11;;;;;;;163.07;61.15;;;;;;;17.58;48.71;102787.47;5008826;28;20068;-69
2023/05/18 06:30:37;;;;;;;169.07;62.60;;;;;;;17.60;48.35;102786.59;5017589;28;20030;-68
2023/05/18 06:33:03;;;;;;;163.25;61.25;;;;;;;17.62;48.49;102790.97;5018612;28;20025;-68
2023/05/18 06:35:28;;;;;;;166.30;60.55;;;;;;;17.62;47.98;102785.69;4996375;28;20057;-69
2023/05/18 06:37:53;;;;;;;157.43;61.03;;;;;;;17.65;47.80;102790.91;4992718;28;20042;-69
2023/05/18 06:40:19;;;;;;;167.70;61.60;;;;;;;17.67;47.69;102805.00;5008113;28;20022;-68
2023/05/18 06:42:44;;;;;;;172.68;62.25;;;;;;;17.71;47.35;102800.53;5016191;28;20040;-69
2023/05/18 06:45:10;;;;;;;170.85;62.50;;;;;;;17.71;47.35;102804.06;4994501;28;20021;-69
2023/05/18 06:47:36;;;;;;;161.30;61.30;;;;;;;17.74;47.30;102811.94;5002485;28;20026;-68
2023/05/18 06:50:02;;;;;;;163.38;61.17;;;;;;;17.78;46.70;102807.50;5018474;28;20450;-69
2023/05/18 06:52:28;;;;;;;187.70;64.38;;;;;;;17.81;47.51;102809.25;5012791;28;20076;-69
2023/05/18 06:54:54;;;;;;;163.43;61.22;;;;;;;17.86;46.72;102812.69;5019178;28;20026;-69
2023/05/18 06:57:19;;;;;;;169.57;61.00;;;;;;;17.93;46.85;102811.75;5030322;28;20013;-68
2023/05/18 06:59:45;;;;;;;169.02;61.85;;;;;;;17.98;46.79;102809.91;5011538;28;20105;-69
2023/05/18 07:02:10;;;;;;;168.55;62.15;;;;;;;18.05;46.48;102801.00;5019581;28;21315;-68
2023/05/18 07:04:35;;;;;;;178.70;62.40;;;;;;;18.13;45.89;102797.38;5028357;22;20080;-69
2023/05/18 07:07:01;;;;;;;174.10;67.78;;;;;;;18.22;45.55;102798.09;5042525;28;20083;-70
2023/05/18 07:09:30;;;;;;;160.63;65.68;;;;;;;18.40;45.75;102794.28;5070800;28;20477;-70
2023/05/18 07:11:55;;;;;;;162.85;66.68;;;;;;;18.71;44.25;102801.75;5048855;28;20339;-70
2023/05/18 07:14:20;;;;;;;167.88;62.35;;;;;;;18.79;43.47;102800.72;5041917;28;20031;-70
2023/05/18 07:16:46;;;;;;;194.32;79.90;;;;;;;18.83;44.95;102807.72;5048281;28;20020;-69
2023/05/18 07:19:12;;;;;;;169.57;69.68;;;;;;;18.86;45.19;102807.69;5066250;28;20025;-69
2023/05/18 07:21:39;;;;;;;161.88;60.95;;;;;;;18.86;44.48;102805.91;5058167;28;20033;-69
2023/05/18 07:24:05;;;;;;;167.13;62.05;;;;;;;18.85;43.90;102804.13;5049041;28;20054;-69
2023/05/18 07:26:31;;;;;;;168.25;61.45;;;;;;;18.85;44.38;102797.97;5062484;28;20029;-71
2023/05/18 07:28:56;;;;;;;181.00;65.53;;;;;;;18.84;42.38;102797.13;5068229;28;20033;-70
2023/05/18 07:31:22;;;;;;;170.85;62.50;;;;;;;18.54;41.28;102806.44;5042470;28;20505;-70
2023/05/18 07:33:48;;;;;;;183.00;65.10;;;;;;;18.40;41.24;102807.53;5042782;28;20701;-70
2023/05/18 07:36:14;;;;;;;173.30;65.45;;;;;;;18.15;42.04;102804.38;5049470;28;20036;-68
2023/05/18 07:38:39;;;;;;;167.38;70.65;;;;;;;17.88;40.60;102803.84;5037109;28;20131;-70
2023/05/18 07:41:05;;;;;;;172.45;67.35;;;;;;;17.68;40.65;102811.16;5051105;28;20104;-69
2023/05/18 07:43:30;;;;;;;188.32;67.55;;;;;;;17.49;41.30;102807.84;5042394;28;20143;-69
2023/05/18 07:45:56;;;;;;;173.23;66.63;;;;;;;17.58;42.47;102807.75;5064366;28;20033;-69
2023/05/18 07:48:21;;;;;;;172.55;72.82;;;;;;;17.61;41.23;102809.50;5046843;28;20029;-69
2023/05/18 07:50:46;;;;;;;165.27;62.60;;;;;;;17.52;41.33;102810.44;5057351;28;20497;-69
2023/05/18 07:53:12;;;;;;;159.68;60.00;;;;;;;17.51;40.51;102814.00;5046875;28;20024;-69
2023/05/18 07:55:37;;;;;;;169.50;62.80;;;;;;;17.22;40.38;102818.72;5060109;28;20024;-70
2023/05/18 07:58:02;;;;;;;179.85;73.25;;;;;;;17.00;41.05;102819.81;5054042;28;20017;-68
2023/05/18 08:00:29;;;;;;;172.65;63.42;;;;;;;17.12;41.16;102808.25;5067858;28;20031;-68
2023/05/18 08:02:54;;;;;;;163.20;60.30;;;;;;;17.24;41.30;102821.34;5049422;28;20385;-69
2023/05/18 08:05:21;;;;;;;169.57;70.47;;;;;;;16.99;40.37;102812.81;5045511;28;20033;-69
2023/05/18 08:07:47;;;;;;;169.32;69.30;;;;;;;16.82;40.24;102823.47;5043089;28;20024;-70
2023/05/18 08:10:13;;;;;;;189.35;66.28;;;;;;;16.71;40.98;102819.16;5045942;28;20024;-70
2023/05/18 08:12:38;;;;;;;181.57;71.95;;;;;;;16.76;41.00;102819.13;5024799;28;20021;-69
2023/05/18 08:15:05;;;;;;;183.32;69.68;;;;;;;16.95;40.83;102819.88;5045169;28;20040;-71
2023/05/18 08:17:30;;;;;;;185.80;65.47;;;;;;;17.06;39.98;102818.00;5064733;28;20016;-69
2023/05/18 08:19:56;;;;;;;171.23;73.57;;;;;;;17.19;39.00;102815.22;5053327;28;20499;-72
2023/05/18 08:22:24;;;;;;;169.60;66.60;;;;;;;17.58;39.11;102820.97;5057809;28;20036;-69
2023/05/18 08:24:49;;;;;;;193.85;71.47;;;;;;;17.83;38.38;102812.72;5046531;28;20028;-71
2023/05/18 08:27:15;;;;;;;186.57;65.40;;;;;;;18.08;38.21;102814.19;5040218;28;20036;-71
2023/05/18 08:29:40;;;;;;;167.48;63.15;;;;;;;18.19;41.00;102810.50;5031102;28;20058;-71
2023/05/18 08:32:06;;;;;;;165.27;63.78;;;;;;;18.44;40.27;102807.50;5069371;28;20024;-71
2023/05/18 08:34:35;;;;;;;172.75;66.82;;;;;;;18.74;40.95;102814.03;5035636;28;20025;-71
2023/05/18 08:37:01;;;;;;;162.55;61.20;;;;;;;18.97;40.46;102810.16;5050707;28;20038;-71
2023/05/18 08:39:30;;;;;;;173.23;65.75;;;;;;;19.17;40.38;102804.47;5032176;28;20029;-70
2023/05/18 08:42:11;;;;;;;165.88;62.42;;;;;;;19.39;40.04;102803.19;5033126;28;20385;-69
2023/05/18 08:44:48;;;;;;;189.65;65.63;;;;;;;19.54;39.82;102802.00;5048468;28;20028;-70
2023/05/18 08:47:24;;;;;;;169.23;63.30;;;;;;;19.66;40.29;102797.34;5051173;28;20028;-70
2023/05/18 08:49:51;;;;;;;167.55;60.78;;;;;;;19.77;40.04;102795.34;5069497;28;20386;-72
2023/05/18 08:52:18;;;;;;;175.70;63.40;;;;;;;19.89;40.37;102796.88;5046323;28;20423;-71
2023/05/18 08:54:43;;;;;;;166.55;64.80;;;;;;;19.96;40.13;102795.84;5043835;28;20112;-73
2023/05/18 08:57:10;;;;;;;179.88;62.10;;;;;;;20.02;40.53;102801.00;5045634;28;20456;-71
2023/05/18 08:59:39;;;;;;;187.02;65.05;;;;;;;20.10;40.74;102796.38;5043865;28;20035;-69
2023/05/18 09:02:08;;;;;;;167.98;62.20;;;;;;;20.17;40.34;102794.47;5029376;28;20120;-71
2023/05/18 09:04:34;;;;;;;172.02;63.45;;;;;;;20.23;40.66;102798.75;5034447;28;20056;-70
2023/05/18 09:07:01;;;;;;;179.10;64.05;;;;;;;20.26;40.15;102799.56;5066213;28;20087;-70
2023/05/18 09:09:27;;;;;;;166.68;62.58;;;;;;;20.30;40.73;102791.50;5052442;28;20058;-71
2023/05/18 09:11:55;;;;;;;177.95;63.63;;;;;;;20.34;40.32;102790.53;5031723;28;20025;-73
2023/05/18 09:14:24;;;;;;;195.85;67.30;;;;;;;20.36;40.19;102789.59;5028426;28;20024;-70
2023/05/18 09:16:52;;;;;;;175.45;63.33;;;;;;;20.42;40.67;102792.09;5029821;28;20026;-70
2023/05/18 09:19:18;;;;;;;188.52;66.38;;;;;;;20.50;40.36;102785.72;5047520;28;20024;-72
2023/05/18 09:21:43;;;;;;;163.23;62.22;;;;;;;20.51;40.47;102787.47;5046000;28;20027;-72
2023/05/18 09:24:10;;;;;;;184.23;65.90;;;;;;;20.52;40.09;102784.78;5063371;28;20024;-71
2023/05/18 09:26:36;;;;;;;174.95;65.70;;;;;;;20.54;40.92;102782.09;5036780;28;20086;-70
2023/05/18 09:29:17;;;;;;;174.23;64.00;;;;;;;20.55;40.48;102778.53;5049377;28;20039;-71
2023/05/18 09:31:44;;;;;;;171.63;63.35;;;;;;;20.54;40.85;102771.47;5050779;28;20032;-72
2023/05/18 09:34:10;;;;;;;191.48;65.65;;;;;;;20.51;41.12;102776.88;5043089;28;20021;-66
2023/05/18 09:36:35;;;;;;;193.90;65.10;;;;;;;20.50;41.02;102775.97;5062821;28;20035;-67
2023/05/18 09:39:06;;;;;;;175.88;64.88;;;;;;;20.48;41.15;102776.91;5045405;28;20033;-69
2023/05/18 09:41:31;;;;;;;176.48;64.78;;;;;;;20.47;40.85;102775.19;5043540;28;20023;-69
2023/05/18 09:43:56;;;;;;;175.98;63.00;;;;;;;20.44;41.32;102776.13;5049769;28;20115;-68
2023/05/18 09:46:22;;;;;;;182.45;64.55;;;;;;;20.37;41.46;102767.44;5063934;28;20107;-70
2023/05/18 09:48:52;;;;;;;180.52;64.90;;;;;;;20.32;42.09;102766.69;5064502;28;20032;-68
2023/05/18 09:51:19;;;;;;;181.13;65.80;;;;;;;20.34;42.14;102764.88;5042362;28;20500;-68
2023/05/18 09:53:53;;;;;;;180.70;64.65;;;;;;;20.32;41.73;102771.13;5045400;28;20521;-70
2023/05/18 09:56:18;;;;;;;168.80;61.92;;;;;;;20.29;42.06;102766.78;5048160;28;20020;-68
2023/05/18 09:58:44;;;;;;;180.23;64.15;;;;;;;20.24;42.47;102768.66;5068686;28;20036;-67
2023/05/18 10:01:10;;;;;;;179.82;63.70;;;;;;;20.19;42.51;102770.53;5038566;28;20024;-68
2023/05/18 10:03:36;;;;;;;168.52;64.88;;;;;;;20.14;42.52;102768.00;5070178;28;20021;-69
2023/05/18 10:06:09;;;;;;;173.75;68.53;;;;;;;20.12;42.30;102774.25;5048989;28;20033;-70
2023/05/18 10:08:35;;;;;;;166.05;63.30;;;;;;;20.10;42.55;102772.50;5053604;28;20032;-68
2023/05/18 10:11:02;;;;;;;166.07;62.83;;;;;;;20.05;42.80;102768.22;5046083;28;20031;-69
2023/05/18 10:13:30;;;;;;;166.88;61.67;;;;;;;20.04;42.38;102762.06;5050114;28;20128;-72
2023/05/18 10:15:59;;;;;;;168.27;62.10;;;;;;;20.02;42.38;102763.00;5048702;28;20083;-69
2023/05/18 10:18:27;;;;;;;175.02;62.60;;;;;;;19.99;42.63;102761.28;5051296;28;20039;-68
2023/05/18 10:20:59;;;;;;;168.98;62.30;;;;;;;19.97;41.98;102755.13;5047459;28;20035;-68
2023/05/18 10:23:26;;;;;;;202.60;96.53;;;;;;;19.93;42.44;102759.66;5069076;28;20021;-68
2023/05/18 10:25:52;;;;;;;164.57;60.95;;;;;;;19.95;41.80;102751.66;5053478;28;20047;-69
2023/05/18 10:28:23;;;;;;;166.40;62.35;;;;;;;19.97;42.19;102752.47;5052531;28;20028;-68
2023/05/18 10:30:49;;;;;;;183.40;64.00;;;;;;;19.97;42.63;102752.47;5062352;28;20111;-71
2023/05/18 10:33:15;;;;;;;182.43;65.57;;;;;;;19.95;42.58;102749.00;5051128;28;20098;-68
2023/05/18 10:35:41;;;;;;;174.77;63.38;;;;;;;19.91;42.15;102748.19;5053484;28;21014;-68
2023/05/18 10:38:07;;;;;;;163.25;61.53;;;;;;;19.91;41.92;102739.38;5043879;28;20101;-68
2023/05/18 10:40:33;;;;;;;168.75;64.07;;;;;;;19.90;41.72;102749.09;5051012;28;20025;-68
2023/05/18 10:43:01;;;;;;;185.68;66.57;;;;;;;19.87;42.16;102743.88;5024507;28;20028;-69
2023/05/18 10:45:26;;;;;;;168.43;62.00;;;;;;;19.85;42.53;102751.00;5059670;28;20021;-68
2023/05/18 10:47:53;;;;;;;175.95;64.32;;;;;;;19.83;41.87;102751.94;5065009;28;20043;-69
2023/05/18 10:50:22;;;;;;;167.90;61.85;;;;;;;19.79;42.36;102745.78;5054166;28;20303;-69
2023/05/18 10:52:48;;;;;;;167.18;62.40;;;;;;;19.74;42.75;102745.91;5044100;28;20703;-69
2023/05/18 10:55:14;;;;;;;167.02;63.28;;;;;;;19.72;42.54;102744.19;5049293;28;20201;-69
2023/05/18 10:57:47;;;;;;;166.68;61.60;;;;;;;19.67;42.64;102746.06;5068441;28;20016;-68
2023/05/18 11:00:13;;;;;;;169.02;61.72;;;;;;;19.61;42.76;102741.78;5048909;28;20477;-68